CheckWX is a tool to help pilots better visualize weather data.  It is not intended as a substitute for an official pre-flight weather briefing.

22:47:05 UTC

GVBA METAR
Rabil Airport
Rabil, Cape Verde
Current

4 hours ago

GVBA 051900Z 02012KT 9999 SCT015 BKN200 23/14 Q1015 NOSIG
Observed
Dec-5 @ 19:00 UTC
Wind
  • 020° at 12 KTS
Visibility
10,000+ meters
Flight Rules
VFR
Cloud Levels
  • Scattered at 1,500' AGL
  • Broken at 20,000' AGL
Temperature
23°C / 73°F
Dewpoint
14°C / 57°F
Humidity
57%
Altimeter
29.97" Hg
Pressure
1014.92 hPa
Previous

5 hours ago

GVBA 051800Z 01013KT 9999 SCT015 BKN200 24/14 Q1015 NOSIG
Observed
Dec-5 @ 18:00 UTC
Wind
  • 010° at 13 KTS
Visibility
10,000+ meters
Flight Rules
VFR
Cloud Levels
  • Scattered at 1,500' AGL
  • Broken at 20,000' AGL
Temperature
24°C / 75°F
Dewpoint
14°C / 57°F
Humidity
54%
Altimeter
29.97" Hg
Pressure
1014.92 hPa
Previous

6 hours ago

GVBA 051700Z 01015KT 9999 SCT015 BKN200 24/15 Q1014 NOSIG
Observed
Dec-5 @ 17:00 UTC
Wind
  • 010° at 15 KTS
Visibility
10,000+ meters
Flight Rules
VFR
Cloud Levels
  • Scattered at 1,500' AGL
  • Broken at 20,000' AGL
Temperature
24°C / 75°F
Dewpoint
15°C / 59°F
Humidity
57%
Altimeter
29.94" Hg
Pressure
1013.92 hPa